Time;durP1;ratioP1;P1;durP2;ratioP2;P2;SDS_P1;SDS_P2;PMS_P1;PMS_P2;Temp;Humidity;BMP_temperature;BMP_pressure;BME280_temperature;BME280_humidity;BME280_pressure;Samples;Min_cycle;Max_cycle;Signal;HPM_P1;HPM_P2
2021/03/30 00:00:12;;;;;;;7.70;4.60;;;8.50;99.90;;;;;;5029191;28;20602;-76
2021/03/30 00:02:37;;;;;;;11.10;5.07;;;8.40;99.90;;;;;;5012582;28;20606;-77
2021/03/30 00:05:04;;;;;;;9.67;4.53;;;8.40;99.90;;;;;;5012617;28;20196;-77
2021/03/30 00:07:29;;;;;;;6.57;4.47;;;8.20;99.90;;;;;;4996241;28;20651;-77
2021/03/30 00:09:55;;;;;;;6.13;4.50;;;8.20;99.90;;;;;;5012476;28;20179;-77
2021/03/30 00:12:20;;;;;;;6.60;4.40;;;8.20;99.90;;;;;;5029008;28;20178;-77
2021/03/30 00:14:46;;;;;;;7.37;4.40;;;8.00;99.90;;;;;;4995824;28;20211;-77
2021/03/30 00:17:11;;;;;;;10.73;5.07;;;8.10;99.90;;;;;;5029456;28;20695;-77
2021/03/30 00:19:37;;;;;;;10.37;5.13;;;8.10;99.90;;;;;;5003865;28;20222;-77
2021/03/30 00:22:03;;;;;;;7.33;5.33;;;8.00;99.90;;;;;;5037238;28;20172;-77
2021/03/30 00:24:28;;;;;;;7.70;4.83;;;8.00;99.90;;;;;;5037383;28;20204;-78
2021/03/30 00:26:54;;;;;;;7.60;5.00;;;7.00;99.90;;;;;;5013026;28;20184;-78
2021/03/30 00:29:19;;;;;;;11.13;5.00;;;6.30;99.90;;;;;;5028520;28;20666;-77
2021/03/30 00:31:45;;;;;;;8.43;5.43;;;8.00;99.90;;;;;;5028598;28;20184;-77
2021/03/30 00:34:10;;;;;;;9.67;5.10;;;7.90;99.90;;;;;;5028615;28;20370;-78
2021/03/30 00:36:36;;;;;;;6.70;4.87;;;7.90;99.90;;;;;;5027750;28;20207;-78
2021/03/30 00:39:01;;;;;;;6.43;4.93;;;7.90;99.90;;;;;;5028367;28;20186;-77
2021/03/30 00:41:27;;;;;;;10.20;5.33;;;7.80;99.90;;;;;;5029243;28;20635;-78
2021/03/30 00:43:52;;;;;;;8.67;5.17;;;7.80;99.90;;;;;;5028658;28;20592;-77
2021/03/30 00:46:18;;;;;;;8.20;5.23;;;7.80;99.90;;;;;;5011922;28;20532;-78
2021/03/30 00:48:46;;;;;;;7.80;5.30;;;7.70;99.90;;;;;;4995414;28;20187;-77
2021/03/30 00:51:12;;;;;;;9.37;5.37;;;7.60;99.90;;;;;;4995330;28;20214;-77
2021/03/30 00:53:37;;;;;;;8.17;5.10;;;7.60;99.90;;;;;;5011296;28;20207;-78
2021/03/30 00:56:03;;;;;;;7.83;5.13;;;7.60;99.90;;;;;;5011667;28;20207;-78
2021/03/30 00:58:28;;;;;;;8.37;5.50;;;7.60;99.90;;;;;;5011691;28;20229;-78
2021/03/30 01:00:54;;;;;;;6.93;5.00;;;7.60;99.90;;;;;;5011651;28;20179;-77
2021/03/30 01:03:20;;;;;;;7.23;5.00;;;7.50;99.90;;;;;;5011409;28;20182;-77
2021/03/30 01:05:45;;;;;;;7.70;5.67;;;8.40;99.90;;;;;;5028020;28;20178;-77
2021/03/30 01:08:39;;;;;;;8.47;5.00;;;7.50;99.90;;;;;;5011425;28;20606;-78
2021/03/30 01:11:49;;;;;;;8.87;4.90;;;7.50;99.90;;;;;;5021950;28;20210;-77
2021/03/30 01:14:40;;;;;;;8.80;5.23;;;7.40;99.90;;;;;;5027363;28;20650;-78
2021/03/30 01:17:29;;;;;;;7.90;5.07;;;7.40;99.90;;;;;;5027654;28;20670;-78
2021/03/30 01:20:35;;;;;;;11.30;5.63;;;7.40;99.90;;;;;;5027812;28;20172;-78
2021/03/30 01:23:26;;;;;;;10.60;5.37;;;7.30;99.90;;;;;;5025562;28;20209;-76
2021/03/30 01:26:16;;;;;;;8.47;5.40;;;7.10;99.90;;;;;;5011248;28;20197;-78
2021/03/30 01:29:00;;;;;;;9.27;5.57;;;7.30;99.90;;;;;;5012399;28;20218;-78
2021/03/30 01:31:26;;;;;;;10.60;5.90;;;7.20;99.90;;;;;;5027552;28;20229;-78
2021/03/30 01:33:52;;;;;;;10.20;5.70;;;7.20;99.90;;;;;;5010942;28;20210;-78
2021/03/30 01:36:19;;;;;;;9.43;5.00;;;7.10;99.90;;;;;;4994758;28;20215;-77
2021/03/30 01:38:44;;;;;;;11.00;5.80;;;7.00;99.90;;;;;;5011101;28;20199;-77
2021/03/30 01:41:10;;;;;;;10.60;5.93;;;7.10;99.90;;;;;;5011185;28;20694;-78
2021/03/30 01:43:37;;;;;;;8.93;5.40;;;;;;;;;;4994314;28;20199;-79
2021/03/30 01:46:02;;;;;;;9.03;5.33;;;7.10;99.90;;;;;;5027392;28;20258;-78
2021/03/30 01:48:28;;;;;;;6.87;5.13;;;6.30;99.90;;;;;;5010808;28;20719;-78
2021/03/30 01:50:53;;;;;;;8.60;5.60;;;7.00;99.90;;;;;;4994676;28;20186;-77
2021/03/30 01:53:19;;;;;;;9.10;6.10;;;7.00;99.90;;;;;;4994398;28;20254;-78
2021/03/30 01:55:45;;;;;;;9.53;5.23;;;7.00;99.90;;;;;;4994713;28;20239;-77
2021/03/30 01:58:11;;;;;;;7.70;5.50;;;6.90;99.90;;;;;;5010879;28;20210;-77
2021/03/30 02:00:36;;;;;;;10.00;6.20;;;7.00;99.90;;;;;;5010964;28;20274;-78
2021/03/30 02:03:02;;;;;;;7.27;5.43;;;6.90;99.90;;;;;;5010639;28;20619;-78
2021/03/30 02:05:28;;;;;;;8.23;5.60;;;6.80;99.90;;;;;;4994298;28;20354;-78
2021/03/30 02:07:55;;;;;;;8.33;5.50;;;;;;;;;;4993412;28;20218;-77
2021/03/30 02:10:45;;;;;;;9.73;5.40;;;6.70;99.90;;;;;;5027402;28;20179;-78
2021/03/30 02:13:12;;;;;;;7.70;5.40;;;7.00;99.90;;;;;;5013893;28;20566;-77
2021/03/30 02:15:38;;;;;;;11.47;5.90;;;6.60;99.90;;;;;;5010639;28;20306;-77
2021/03/30 02:18:08;;;;;;;9.77;5.93;;;6.60;99.90;;;;;;5027167;28;20227;-78
2021/03/30 02:20:38;;;;;;;7.60;5.80;;;6.60;99.90;;;;;;5027193;28;20172;-77
2021/03/30 02:23:08;;;;;;;9.20;5.97;;;6.60;99.90;;;;;;5026819;28;20234;-77
2021/03/30 02:25:34;;;;;;;8.57;5.50;;;6.60;99.90;;;;;;5010341;28;20213;-78
2021/03/30 02:28:11;;;;;;;8.70;5.63;;;6.60;99.90;;;;;;5010664;28;20172;-78
2021/03/30 02:30:37;;;;;;;9.33;6.20;;;6.50;99.90;;;;;;5010867;28;20175;-77
2021/03/30 02:33:03;;;;;;;9.57;5.90;;;6.60;99.90;;;;;;5010563;28;20187;-78
2021/03/30 02:35:29;;;;;;;13.17;6.60;;;6.50;99.90;;;;;;5010479;28;20290;-78
2021/03/30 02:37:54;;;;;;;9.57;6.23;;;6.50;99.90;;;;;;4994209;28;20283;-79
2021/03/30 02:40:21;;;;;;;10.13;6.17;;;6.50;99.90;;;;;;4994423;28;20207;-78
2021/03/30 02:42:47;;;;;;;10.40;6.67;;;6.40;99.90;;;;;;5010375;28;20258;-78
2021/03/30 02:45:15;;;;;;;10.53;6.77;;;6.40;99.90;;;;;;4994163;28;20678;-78
2021/03/30 02:47:41;;;;;;;11.40;6.40;;;5.70;99.90;;;;;;5010524;28;20179;-79
2021/03/30 02:50:07;;;;;;;9.50;6.53;;;6.40;99.90;;;;;;5010373;28;20186;-77
2021/03/30 02:52:33;;;;;;;9.20;7.00;;;6.60;99.90;;;;;;5010780;28;20186;-78
2021/03/30 02:54:59;;;;;;;11.03;7.00;;;6.60;99.90;;;;;;5010325;28;20198;-77
2021/03/30 02:57:24;;;;;;;9.00;6.23;;;6.60;99.90;;;;;;4994239;28;20670;-77
2021/03/30 02:59:52;;;;;;;11.67;6.47;;;6.60;99.90;;;;;;5028511;28;20202;-78
2021/03/30 03:02:18;;;;;;;10.83;6.57;;;6.50;99.90;;;;;;4997302;28;20179;-79
2021/03/30 03:04:47;;;;;;;9.87;5.93;;;6.50;99.90;;;;;;5029951;28;20198;-78
2021/03/30 03:07:13;;;;;;;10.27;6.50;;;6.50;99.90;;;;;;5013749;28;20585;-79
2021/03/30 03:09:38;;;;;;;9.77;6.27;;;6.40;99.90;;;;;;5013758;28;20226;-78
2021/03/30 03:12:05;;;;;;;11.57;6.20;;;6.40;99.90;;;;;;5013649;28;20215;-79
2021/03/30 03:14:31;;;;;;;10.03;6.30;;;6.40;99.90;;;;;;5013364;28;20704;-78
2021/03/30 03:16:56;;;;;;;10.07;5.80;;;6.40;99.90;;;;;;5029994;28;20290;-79
2021/03/30 03:19:22;;;;;;;11.00;5.70;;;6.40;99.90;;;;;;5013877;28;20218;-79
2021/03/30 03:21:48;;;;;;;9.87;6.27;;;6.30;99.90;;;;;;4998018;28;20183;-78
2021/03/30 03:24:13;;;;;;;10.17;6.33;;;6.20;99.90;;;;;;4996729;28;20196;-79
2021/03/30 03:26:39;;;;;;;10.27;5.80;;;7.00;99.90;;;;;;5013404;28;20175;-77
2021/03/30 03:29:15;;;;;;;11.43;6.10;;;6.00;99.90;;;;;;5029959;28;20184;-78
2021/03/30 03:31:41;;;;;;;10.93;6.33;;;6.00;99.90;;;;;;5013310;28;20218;-77
2021/03/30 03:34:07;;;;;;;10.23;6.23;;;6.00;99.90;;;;;;5012944;28;20298;-79
2021/03/30 03:36:43;;;;;;;9.60;6.40;;;6.00;99.90;;;;;;5029586;28;20813;-79
2021/03/30 03:39:10;;;;;;;11.20;6.57;;;6.00;99.90;;;;;;4996744;28;20712;-79
2021/03/30 03:41:36;;;;;;;10.50;6.37;;;5.90;99.90;;;;;;5029539;28;20306;-78
2021/03/30 03:44:02;;;;;;;9.20;6.37;;;5.90;99.90;;;;;;4996706;28;20238;-78
2021/03/30 03:46:28;;;;;;;11.43;6.23;;;5.90;99.90;;;;;;5029414;28;20194;-78
2021/03/30 03:48:54;;;;;;;8.93;6.17;;;5.80;99.90;;;;;;4996610;28;20620;-79
2021/03/30 03:51:19;;;;;;;12.17;6.33;;;5.80;99.90;;;;;;5012910;28;20195;-77
2021/03/30 03:53:48;;;;;;;12.00;6.23;;;5.80;99.90;;;;;;5012600;28;20702;-78
2021/03/30 03:56:22;;;;;;;12.03;6.53;;;5.80;99.90;;;;;;5012845;28;20206;-79
2021/03/30 03:58:49;;;;;;;12.23;6.20;;;5.80;99.90;;;;;;5000265;28;20195;-78
2021/03/30 04:01:35;;;;;;;10.00;6.77;;;5.50;99.90;;;;;;4993232;28;20192;-78
2021/03/30 04:04:02;;;;;;;10.50;6.27;;;5.80;99.90;;;;;;4992793;28;20258;-78
2021/03/30 04:06:33;;;;;;;11.47;6.73;;;5.70;99.90;;;;;;4993110;28;20219;-78
2021/03/30 04:08:59;;;;;;;9.93;6.80;;;5.70;99.90;;;;;;4993013;28;20183;-77
2021/03/30 04:11:25;;;;;;;10.37;6.60;;;5.70;99.90;;;;;;4992993;28;20563;-78
2021/03/30 04:13:51;;;;;;;11.03;6.53;;;5.70;99.90;;;;;;4992668;28;20223;-78
2021/03/30 04:16:16;;;;;;;11.17;7.13;;;4.10;99.90;;;;;;4993072;28;20226;-77
2021/03/30 04:18:42;;;;;;;13.80;7.00;;;5.60;99.90;;;;;;4992615;28;20179;-77
2021/03/30 04:21:23;;;;;;;12.10;7.37;;;5.60;99.90;;;;;;4992884;28;20209;-79
2021/03/30 04:23:50;;;;;;;10.57;6.70;;;5.50;99.90;;;;;;4992343;28;20196;-77
2021/03/30 04:26:16;;;;;;;11.73;6.80;;;5.40;99.90;;;;;;4992889;28;20199;-78
2021/03/30 04:28:41;;;;;;;11.13;6.67;;;5.60;99.90;;;;;;4992681;28;20265;-79
2021/03/30 04:31:07;;;;;;;12.17;7.47;;;5.60;99.90;;;;;;4992181;28;20668;-78
2021/03/30 04:33:33;;;;;;;14.70;7.57;;;5.50;99.90;;;;;;4992196;28;20218;-78
2021/03/30 04:35:58;;;;;;;10.73;7.07;;;5.50;99.90;;;;;;4992455;28;20215;-77
2021/03/30 04:38:24;;;;;;;11.30;7.60;;;5.50;99.90;;;;;;4992404;28;20255;-77
2021/03/30 04:40:53;;;;;;;12.00;7.10;;;5.40;99.90;;;;;;4992143;28;20184;-78
2021/03/30 04:43:22;;;;;;;10.93;7.40;;;5.40;99.90;;;;;;4992852;28;20168;-78
2021/03/30 04:45:48;;;;;;;13.07;7.53;;;5.30;99.90;;;;;;4992720;28;20181;-78
2021/03/30 04:48:14;;;;;;;12.40;6.73;;;5.30;99.90;;;;;;5008562;28;20183;-79
2021/03/30 04:50:39;;;;;;;12.17;7.20;;;5.20;99.90;;;;;;4992363;28;20547;-76
2021/03/30 04:53:05;;;;;;;14.30;7.40;;;5.10;99.90;;;;;;4991847;28;20180;-76
2021/03/30 04:55:30;;;;;;;13.07;7.67;;;5.20;99.90;;;;;;4992077;28;20215;-78
2021/03/30 04:57:56;;;;;;;11.83;7.63;;;5.20;99.90;;;;;;5008201;28;20168;-79
2021/03/30 05:00:22;;;;;;;13.83;7.60;;;5.10;99.90;;;;;;4992021;28;20192;-79
2021/03/30 05:02:47;;;;;;;14.37;8.47;;;5.20;99.90;;;;;;5008067;28;20179;-78
2021/03/30 05:05:13;;;;;;;18.40;7.93;;;5.10;99.90;;;;;;4991693;28;20195;-77
2021/03/30 05:07:39;;;;;;;14.50;8.17;;;5.20;99.90;;;;;;5008291;28;20656;-78
2021/03/30 05:10:05;;;;;;;13.90;8.40;;;5.20;99.90;;;;;;4991821;28;20666;-78
2021/03/30 05:12:31;;;;;;;14.37;7.97;;;5.10;99.90;;;;;;4997097;28;20179;-77
2021/03/30 05:14:57;;;;;;;14.23;8.53;;;5.10;99.90;;;;;;5010850;28;20297;-77
2021/03/30 05:17:22;;;;;;;16.17;8.70;;;5.10;99.90;;;;;;4994377;28;20678;-78
2021/03/30 05:19:48;;;;;;;16.57;8.50;;;5.10;99.90;;;;;;5011418;28;20643;-78
2021/03/30 05:22:13;;;;;;;15.30;8.50;;;5.10;99.90;;;;;;5011016;28;20222;-76
2021/03/30 05:24:39;;;;;;;16.17;8.40;;;5.10;99.90;;;;;;5016479;28;20199;-77
2021/03/30 05:27:05;;;;;;;15.47;8.53;;;5.00;99.90;;;;;;4997574;28;20651;-76
2021/03/30 05:31:59;;;;;;;16.07;8.67;;;5.10;99.90;;;;;;5049694;28;20264;-82
2021/03/30 05:34:24;;;;;;;16.87;8.77;;;5.00;99.90;;;;;;5009042;28;20200;-83
2021/03/30 05:36:50;;;;;;;14.73;8.60;;;5.10;99.90;;;;;;5014932;28;20198;-80
2021/03/30 05:39:16;;;;;;;15.40;8.67;;;5.00;99.90;;;;;;5002196;28;20205;-80
2021/03/30 05:41:41;;;;;;;18.20;9.37;;;5.10;99.90;;;;;;5002791;28;20194;-79
2021/03/30 05:44:08;;;;;;;13.33;8.43;;;5.10;99.90;;;;;;5008735;28;20179;-81
2021/03/30 05:46:33;;;;;;;20.43;9.23;;;5.20;99.90;;;;;;5013682;28;20182;-80
2021/03/30 05:49:00;;;;;;;15.53;9.00;;;5.20;99.90;;;;;;5022601;28;20205;-80
2021/03/30 05:51:25;;;;;;;17.53;8.97;;;5.30;99.90;;;;;;5037232;28;20235;-80
2021/03/30 05:53:55;;;;;;;14.60;8.37;;;5.30;99.90;;;;;;5021438;28;20182;-81
2021/03/30 05:56:20;;;;;;;14.43;8.80;;;5.40;99.90;;;;;;5037862;28;20212;-80
2021/03/30 05:58:46;;;;;;;18.40;8.63;;;5.50;99.90;;;;;;5008491;28;20197;-80
2021/03/30 06:01:13;;;;;;;15.23;8.37;;;5.50;99.90;;;;;;5003519;28;20175;-80
2021/03/30 06:03:38;;;;;;;16.47;9.07;;;5.70;99.90;;;;;;5018413;28;20171;-81
2021/03/30 06:06:04;;;;;;;18.50;8.73;;;6.10;99.90;;;;;;5001252;28;20188;-80
2021/03/30 06:08:30;;;;;;;12.93;8.17;;;6.70;99.90;;;;;;5001317;28;20189;-80
2021/03/30 06:10:58;;;;;;;16.93;8.33;;;7.50;99.90;;;;;;5018053;28;20539;-81
2021/03/30 06:13:43;;;;;;;14.27;8.40;;;8.10;99.90;;;;;;5001714;28;20187;-80
2021/03/30 06:16:29;;;;;;;19.97;9.00;;;8.40;99.90;;;;;;5001843;28;20206;-80
2021/03/30 06:19:20;;;;;;;19.73;9.00;;;8.70;99.90;;;;;;5017695;28;20194;-80
2021/03/30 06:21:53;;;;;;;16.50;8.73;;;8.80;99.90;;;;;;5003394;28;20186;-80
2021/03/30 06:24:22;;;;;;;18.27;9.73;;;11.10;99.90;;;;;;5033980;28;20649;-80
2021/03/30 06:26:52;;;;;;;15.50;9.00;;;12.10;99.90;;;;;;5036802;28;20185;-80
2021/03/30 06:29:35;;;;;;;15.07;9.13;;;13.20;99.90;;;;;;5020909;28;20205;-80
2021/03/30 06:32:05;;;;;;;14.10;8.23;;;14.60;99.90;;;;;;5038899;28;20185;-80
2021/03/30 06:34:32;;;;;;;18.10;9.33;;;15.40;99.90;;;;;;5022291;28;20181;-80
2021/03/30 06:36:58;;;;;;;24.20;10.20;;;16.10;99.90;;;;;;5008379;28;20202;-80
2021/03/30 06:39:34;;;;;;;17.10;9.30;;;16.50;99.90;;;;;;5005722;28;20209;-81
2021/03/30 06:42:05;;;;;;;25.20;11.27;;;17.20;99.90;;;;;;5005481;28;20175;-81
2021/03/30 06:44:36;;;;;;;16.87;9.93;;;;;;;;;;4990456;28;20559;-81
2021/03/30 06:47:02;;;;;;;17.73;9.20;;;;;;;;;;5005151;28;20187;-81
2021/03/30 06:49:29;;;;;;;16.67;9.40;;;;;;;;;;5020982;28;20619;-81
2021/03/30 06:51:56;;;;;;;20.50;9.87;;;;;;;;;;5004774;28;20215;-81
2021/03/30 06:54:22;;;;;;;19.03;9.97;;;;;;;;;;5004333;28;20270;-81
2021/03/30 06:56:49;;;;;;;16.00;9.43;;;;;;;;;;5004287;28;20260;-81
2021/03/30 06:59:15;;;;;;;17.27;9.70;;;;;;;;;;5021068;28;20237;-81
2021/03/30 07:01:41;;;;;;;15.13;9.47;;;;;;;;;;5020722;28;20195;-81
2021/03/30 07:04:07;;;;;;;17.10;10.43;;;;;;;;;;5019825;28;20179;-81
2021/03/30 07:06:37;;;;;;;16.97;10.23;;;;;;;;;;5057134;28;20272;-81
2021/03/30 07:09:03;;;;;;;19.13;10.83;;;;;;;;;;5032999;28;20201;-81
2021/03/30 07:11:32;;;;;;;18.50;10.20;;;;;;;;;;5043280;28;20295;-81
2021/03/30 07:13:58;;;;;;;22.40;11.13;;;;;;;;;;5060332;28;20587;-81
2021/03/30 07:16:27;;;;;;;23.50;11.67;;;;;;;;;;5043339;28;20627;-81
2021/03/30 07:18:55;;;;;;;21.90;11.20;;;;;;;;;;5044130;28;20204;-81
2021/03/30 07:21:25;;;;;;;24.80;11.50;;;;;;;;;;5060958;28;20211;-81
2021/03/30 07:23:56;;;;;;;21.23;11.50;;;;;;;;;;5033534;28;20186;-81
2021/03/30 07:26:26;;;;;;;20.40;12.00;;;;;;;;;;5052897;28;20671;-81
2021/03/30 07:29:04;;;;;;;24.13;12.63;;;14.90;99.90;;;;;;5029669;28;20194;-80
2021/03/30 07:31:32;;;;;;;22.53;12.07;;;;;;;;;;5054829;28;20208;-80
2021/03/30 07:34:01;;;;;;;21.73;12.27;;;14.80;99.90;;;;;;5041239;28;20589;-81
2021/03/30 07:36:29;;;;;;;25.23;12.23;;;;;;;;;;5009683;28;20264;-81
2021/03/30 07:38:56;;;;;;;21.33;12.67;;;;;;;;;;5024598;28;20199;-81
2021/03/30 07:41:22;;;;;;;24.03;11.90;;;;;;;;;;5048454;28;20179;-81
2021/03/30 07:43:49;;;;;;;25.70;13.57;;;;;;;;;;5014929;28;20175;-81
2021/03/30 07:46:15;;;;;;;23.67;12.53;;;;;;;;;;5039963;28;20200;-80
2021/03/30 07:48:42;;;;;;;21.47;12.60;;;;;;;;;;5039718;28;20202;-81
2021/03/30 07:51:13;;;;;;;23.50;13.80;;;;;;;;;;5028398;28;20640;-81
2021/03/30 07:53:53;;;;;;;26.63;13.67;;;;;;;;;;5039275;28;20268;-81
2021/03/30 07:56:23;;;;;;;22.43;13.33;;;;;;;;;;5055429;28;20197;-81
2021/03/30 07:58:50;;;;;;;22.50;13.10;;;;;;;;;;5077160;28;20453;-81
2021/03/30 08:01:18;;;;;;;23.90;13.67;;;;;;;;;;5042733;28;20185;-81
2021/03/30 08:03:45;;;;;;;26.53;13.73;;;;;;;;;;5043121;28;20596;-81
2021/03/30 08:06:19;;;;;;;31.03;14.73;;;;;;;;;;5043560;28;20204;-81
2021/03/30 08:09:07;;;;;;;24.47;14.20;;;;;;;;;;5043474;28;20288;-81
2021/03/30 08:11:40;;;;;;;27.73;14.30;;;;;;;;;;5049524;28;20598;-80
2021/03/30 08:14:07;;;;;;;25.57;14.60;;;;;;;;;;5060189;28;20182;-81
2021/03/30 08:16:38;;;;;;;27.73;14.83;;;;;;;;;;5043047;28;20197;-81
2021/03/30 08:19:05;;;;;;;28.83;14.83;;;;;;;;;;5042701;28;20201;-80
2021/03/30 08:21:53;;;;;;;29.63;15.40;;;;;;;;;;5042467;28;20184;-80
2021/03/30 08:24:20;;;;;;;25.27;15.23;;;;;;;;;;5059101;28;20189;-81
2021/03/30 08:26:47;;;;;;;29.27;15.10;;;;;;;;;;5042734;28;20178;-81
2021/03/30 08:29:19;;;;;;;29.13;15.47;;;;;;;;;;5043060;28;20600;-79
2021/03/30 08:31:46;;;;;;;25.60;14.43;;;;;;;;;;5060283;28;20225;-80
2021/03/30 08:34:23;;;;;;;27.20;14.50;;;;;;;;;;5044146;28;20178;-81
2021/03/30 08:36:58;;;;;;;28.80;15.50;;;;;;;;;;5043747;28;20212;-81
2021/03/30 08:39:25;;;;;;;31.50;15.93;;;;;;;;;;5042389;28;20252;-83
2021/03/30 08:41:55;;;;;;;28.93;15.10;;;;;;;;;;5059668;28;20200;-83
2021/03/30 08:44:42;;;;;;;27.20;15.47;;;;;;;;;;5027894;28;20637;-82
2021/03/30 08:47:09;;;;;;;31.87;15.73;;;;;;;;;;5038586;28;20204;-81
2021/03/30 08:49:40;;;;;;;28.83;15.70;;;;;;;;;;5039068;28;20200;-82
2021/03/30 08:52:13;;;;;;;31.23;15.60;;;;;;;;;;5022804;28;20255;-82
2021/03/30 08:54:44;;;;;;;29.90;15.33;;;;;;;;;;5021859;28;20186;-83
2021/03/30 08:57:12;;;;;;;27.77;14.87;;;;;;;;;;5021099;28;20216;-80
2021/03/30 08:59:39;;;;;;;26.17;14.53;;;;;;;;;;5039628;28;20281;-80
2021/03/30 09:02:06;;;;;;;25.37;14.23;;;;;;;;;;5026668;28;20660;-80
2021/03/30 09:04:35;;;;;;;30.33;15.67;;;;;;;;;;5036934;28;20177;-78
2021/03/30 09:07:02;;;;;;;28.63;15.10;;;;;;;;;;5039685;28;20182;-78
2021/03/30 09:09:33;;;;;;;27.43;14.93;;;;;;;;;;5038591;28;20201;-79
2021/03/30 09:12:00;;;;;;;28.40;15.47;;;;;;;;;;5039707;28;20189;-79
2021/03/30 09:14:27;;;;;;;25.80;15.17;;;;;;;;;;5073177;28;20165;-77
2021/03/30 09:16:53;;;;;;;28.83;16.10;;;;;;;;;;5038395;28;20209;-78
2021/03/30 09:19:21;;;;;;;31.00;16.53;;;;;;;;;;5054840;28;20202;-78
2021/03/30 09:21:50;;;;;;;25.83;15.77;;;;;;;;;;5055581;28;20183;-79
2021/03/30 09:24:32;;;;;;;31.37;16.77;;;;;;;;;;5056537;28;20180;-80
2021/03/30 09:26:59;;;;;;;29.73;16.47;;;;;;;;;;5042156;28;20186;-79
2021/03/30 09:29:26;;;;;;;27.97;16.13;;;;;;;;;;5042035;28;20267;-82
2021/03/30 09:31:53;;;;;;;29.00;16.60;;;;;;;;;;5058244;28;20196;-80
2021/03/30 09:34:20;;;;;;;27.33;16.60;;;;;;;;;;5053940;28;20644;-79
2021/03/30 09:36:47;;;;;;;26.87;16.27;;;25.50;95.80;;;;;;5058514;28;20291;-82
2021/03/30 09:39:18;;;;;;;30.17;16.77;;;26.30;96.90;;;;;;5023676;28;20262;-80
2021/03/30 09:41:43;;;;;;;27.67;17.03;;;26.20;96.10;;;;;;5023149;28;20182;-80
2021/03/30 09:44:09;;;;;;;29.87;15.67;;;26.50;97.60;;;;;;5024082;28;20544;-80
2021/03/30 09:46:35;;;;;;;26.47;15.33;;;26.70;97.50;;;;;;5025170;28;20634;-80
2021/03/30 09:49:00;;;;;;;25.57;14.63;;;26.20;94.80;;;;;;5025569;28;20207;-80
2021/03/30 09:51:26;;;;;;;28.37;16.13;;;26.20;93.50;;;;;;5042178;28;20181;-80
2021/03/30 09:53:52;;;;;;;24.27;14.23;;;26.20;94.10;;;;;;5024626;28;20177;-80
2021/03/30 09:56:21;;;;;;;24.03;15.20;;;26.30;94.40;;;;;;5023729;28;20200;-81
2021/03/30 09:58:48;;;;;;;23.40;14.37;;;25.00;64.70;;;;;;5033609;28;20193;-81
2021/03/30 10:01:13;;;;;;;24.80;15.03;;;25.00;65.80;;;;;;5019920;28;20174;-79
2021/03/30 10:03:39;;;;;;;24.70;15.63;;;25.10;67.20;;;;;;5018369;28;20182;-79
2021/03/30 10:06:17;;;;;;;23.07;14.67;;;25.80;68.10;;;;;;5003196;28;20182;-79
2021/03/30 10:08:42;;;;;;;23.33;14.97;;;26.40;66.80;;;;;;5005258;28;20200;-79
2021/03/30 10:11:08;;;;;;;23.27;14.10;;;25.90;64.90;;;;;;5007343;28;20763;-80
2021/03/30 10:13:36;;;;;;;23.23;14.30;;;26.10;67.80;;;;;;5039693;28;20236;-79
2021/03/30 10:16:05;;;;;;;22.10;14.63;;;25.90;67.30;;;;;;5007427;28;20567;-80
2021/03/30 10:18:31;;;;;;;23.17;14.90;;;25.60;69.40;;;;;;5024601;28;20630;-80
2021/03/30 10:21:11;;;;;;;25.23;15.33;;;25.20;68.10;;;;;;5007858;28;20185;-80
2021/03/30 10:23:41;;;;;;;23.23;14.57;;;24.40;67.10;;;;;;5008395;28;20170;-79
2021/03/30 10:26:39;;;;;;;21.77;13.27;;;23.80;70.40;;;;;;5024934;28;20257;-80
2021/03/30 10:29:10;;;;;;;21.37;14.50;;;24.10;70.10;;;;;;4987319;28;20208;-80
2021/03/30 10:31:44;;;;;;;20.17;12.20;;;24.30;71.40;;;;;;5008925;28;20289;-79
2021/03/30 10:34:26;;;;;;;20.80;11.90;;;24.00;67.30;;;;;;5008754;28;20178;-80
2021/03/30 10:36:52;;;;;;;23.87;12.53;;;23.90;64.60;;;;;;5023405;28;20195;-80
2021/03/30 10:39:26;;;;;;;20.93;13.43;;;24.10;67.50;;;;;;5007023;28;20201;-80
2021/03/30 10:42:12;;;;;;;24.97;14.00;;;24.00;66.50;;;;;;5025193;28;20166;-80
2021/03/30 10:44:43;;;;;;;16.70;11.30;;;23.80;68.10;;;;;;5022689;28;20236;-79
2021/03/30 10:47:48;;;;;;;19.73;12.30;;;24.10;70.10;;;;;;5007295;28;20539;-79
2021/03/30 10:50:17;;;;;;;21.20;13.03;;;24.20;68.40;;;;;;4925371;29;20209;-79
2021/03/30 10:52:43;;;;;;;18.93;12.37;;;24.00;69.10;;;;;;5023918;28;20205;-80
2021/03/30 10:55:16;;;;;;;21.00;12.60;;;24.20;70.50;;;;;;5006665;28;20232;-80
2021/03/30 10:57:45;;;;;;;19.57;13.53;;;24.20;70.00;;;;;;5006928;28;20229;-79
2021/03/30 11:00:11;;;;;;;21.60;12.63;;;24.10;65.90;;;;;;5007884;28;20185;-80
2021/03/30 11:02:37;;;;;;;17.60;10.87;;;24.10;66.20;;;;;;5022765;28;20182;-80
2021/03/30 11:05:03;;;;;;;19.60;11.57;;;23.90;62.10;;;;;;5006478;28;20197;-80
2021/03/30 11:07:29;;;;;;;16.47;10.23;;;23.90;62.00;;;;;;5022915;28;20178;-80
2021/03/30 11:09:55;;;;;;;17.27;9.87;;;23.60;62.00;;;;;;5038651;28;20194;-80
2021/03/30 11:12:20;;;;;;;14.60;9.20;;;23.60;58.30;;;;;;5006124;28;20178;-79
2021/03/30 11:14:46;;;;;;;13.17;8.40;;;23.50;57.60;;;;;;5006407;28;20261;-79
2021/03/30 11:17:11;;;;;;;15.03;9.03;;;23.60;59.70;;;;;;5007141;28;20304;-80
2021/03/30 11:19:37;;;;;;;15.73;9.30;;;23.80;60.90;;;;;;5006386;28;20190;-81
2021/03/30 11:22:03;;;;;;;18.63;10.83;;;23.90;59.00;;;;;;5023818;28;20162;-81
2021/03/30 11:24:32;;;;;;;14.83;10.50;;;24.00;60.80;;;;;;5007084;28;20224;-80
2021/03/30 11:26:58;;;;;;;19.77;11.03;;;24.10;59.00;;;;;;5008466;28;20209;-80
2021/03/30 11:29:37;;;;;;;16.80;10.60;;;24.00;59.40;;;;;;5039585;23;20250;-82
2021/03/30 11:37:53;;;;;;;16.33;10.40;;;24.20;58.30;;;;;;5003253;28;20198;-83
2021/03/30 11:39:50;;;;;;;15.00;9.20;;;23.80;58.00;;;;;;5003189;28;20207;-83
2021/03/30 11:42:15;;;;;;;19.10;10.77;;;23.90;61.00;;;;;;5017638;28;20171;-82
2021/03/30 11:44:41;;;;;;;17.50;10.07;;;24.00;56.60;;;;;;5000992;28;20178;-81
2021/03/30 11:47:06;;;;;;;17.13;9.40;;;23.80;55.90;;;;;;5000613;28;20638;-81
2021/03/30 11:49:33;;;;;;;14.03;7.50;;;23.40;56.50;;;;;;5000706;28;20199;-83
2021/03/30 11:51:59;;;;;;;10.00;6.37;;;23.60;53.10;;;;;;5000440;28;20700;-81
2021/03/30 11:54:24;;;;;;;12.00;7.93;;;23.80;53.50;;;;;;5000505;28;20274;-83
2021/03/30 11:56:50;;;;;;;12.63;8.20;;;23.80;54.30;;;;;;5016946;28;20211;-83
2021/03/30 11:59:15;;;;;;;12.70;8.57;;;23.80;53.70;;;;;;5000009;28;20195;-82
2021/03/30 12:01:41;;;;;;;13.70;8.97;;;23.70;53.30;;;;;;5016771;28;20178;-83
2021/03/30 12:04:07;;;;;;;14.17;8.83;;;23.70;52.80;;;;;;5016426;28;20167;-83
2021/03/30 12:06:32;;;;;;;16.07;9.80;;;24.00;58.00;;;;;;5000023;28;20179;-83
2021/03/30 12:08:58;;;;;;;17.57;9.80;;;24.30;54.50;;;;;;5016394;28;20195;-82
2021/03/30 12:11:24;;;;;;;17.10;9.73;;;24.40;54.60;;;;;;4999918;28;20186;-84
2021/03/30 12:13:49;;;;;;;16.60;10.03;;;24.30;55.20;;;;;;4999912;28;20266;-83
2021/03/30 12:16:15;;;;;;;20.20;11.10;;;24.30;56.60;;;;;;5016531;28;20289;-85
2021/03/30 12:18:40;;;;;;;19.37;11.13;;;23.80;55.10;;;;;;5000170;28;20217;-84
2021/03/30 12:21:06;;;;;;;18.87;10.90;;;24.10;61.60;;;;;;4999784;28;20225;-84
2021/03/30 12:23:31;;;;;;;17.20;10.20;;;24.30;57.20;;;;;;4999901;28;20170;-83
2021/03/30 12:25:57;;;;;;;16.67;9.93;;;24.40;57.70;;;;;;4999923;28;20631;-84
2021/03/30 12:28:23;;;;;;;18.00;10.97;;;24.60;55.90;;;;;;5016274;28;20167;-85
2021/03/30 12:30:49;;;;;;;19.03;11.73;;;24.70;55.80;;;;;;5016115;28;20679;-84
2021/03/30 12:33:14;;;;;;;17.20;10.83;;;24.00;56.40;;;;;;5015956;28;20182;-83
2021/03/30 12:35:40;;;;;;;19.43;11.60;;;24.10;56.20;;;;;;4999503;28;20171;-84
2021/03/30 12:38:06;;;;;;;16.20;10.07;;;24.40;56.90;;;;;;5015857;28;20202;-83
2021/03/30 12:40:31;;;;;;;20.10;11.10;;;24.20;55.40;;;;;;5016151;28;20195;-84
2021/03/30 12:42:57;;;;;;;19.73;11.73;;;24.00;55.30;;;;;;4999672;28;20181;-83
2021/03/30 12:45:22;;;;;;;19.13;11.20;;;24.00;57.10;;;;;;5032786;28;20609;-83
2021/03/30 12:47:48;;;;;;;23.13;12.83;;;24.00;58.50;;;;;;4998890;28;20201;-84
2021/03/30 12:50:14;;;;;;;20.37;13.17;;;24.30;57.30;;;;;;4999513;28;20211;-84
2021/03/30 12:52:39;;;;;;;19.97;12.40;;;23.90;56.90;;;;;;4999491;28;20213;-84
2021/03/30 12:55:06;;;;;;;20.53;12.40;;;24.00;58.60;;;;;;4999427;28;20186;-85
2021/03/30 12:57:33;;;;;;;21.50;12.70;;;24.20;58.20;;;;;;5006137;28;20211;-83
2021/03/30 12:59:58;;;;;;;19.60;12.10;;;24.10;56.70;;;;;;5003797;28;20289;-83
2021/03/30 13:02:24;;;;;;;21.50;13.53;;;23.90;58.40;;;;;;5003720;28;20630;-83
2021/03/30 13:04:50;;;;;;;20.63;12.20;;;24.00;58.00;;;;;;5000136;28;20194;-82
2021/03/30 13:07:18;;;;;;;21.30;12.53;;;24.10;58.20;;;;;;5002117;28;20183;-86
2021/03/30 13:09:45;;;;;;;19.20;11.63;;;24.30;58.80;;;;;;5005366;28;20709;-83
2021/03/30 13:12:11;;;;;;;19.87;11.43;;;24.60;56.80;;;;;;5001990;28;20183;-79
2021/03/30 13:14:37;;;;;;;18.00;10.50;;;24.70;55.90;;;;;;5017066;28;20194;-82